This is the latest recevied weather packets stored in our database for station/object OE3EMC-13. If no packets are shown the sender has not sent any weather packets the latest 10 day(s).
| Time | Temp. | Humidity | Pressure | Rain* | Wind** | Luminosity | Snow |
|---|---|---|---|---|---|---|---|
| 1777033394 | 20.56° C | 36% | 1100 hPa | 0 mm | - | - | - |
| 1777032795 | 20° C | 36% | 1100 hPa | 0 mm | - | - | - |
| 1777032194 | 20° C | 36% | 1100 hPa | 0 mm | - | - | - |
| 1777031594 | 18.89° C | 35% | 1100 hPa | 0 mm | - | - | - |
| 1777030995 | 18.89° C | 35% | 1100 hPa | 0 mm | - | - | - |
| 1777030394 | 18.89° C | 35% | 1100 hPa | 0 mm | - | - | - |
| 1777029793 | 18.89° C | 35% | 1100 hPa | 0 mm | - | - | - |
| 1777029194 | 18.33° C | 38% | 1100 hPa | 0 mm | - | - | - |
| 1777028593 | 18.33° C | 38% | 1100 hPa | 0 mm | - | - | - |
| 1777027994 | 17.78° C | 38% | 1100 hPa | 0 mm | - | - | - |
| 1777027394 | 17.78° C | 38% | 1100 hPa | 0 mm | - | - | - |
| 1777026793 | 17.78° C | 37% | 1100 hPa | 0 mm | - | - | - |
| 1777026193 | 17.78° C | 37% | 1100 hPa | 0 mm | - | - | - |
| 1777025592 | 16.67° C | 39% | 1100 hPa | 0 mm | - | - | - |
| 1777024992 | 16.67° C | 39% | 1100 hPa | 0 mm | - | - | - |
| 1777024392 | 16.11° C | 39% | 1100 hPa | 0 mm | - | - | - |
| 1777023792 | 16.11° C | 39% | 1100 hPa | 0 mm | - | - | - |
| 1777023193 | 15.56° C | 40% | 1100 hPa | 0 mm | - | - | - |
| 1777022591 | 15.56° C | 40% | 1100 hPa | 0 mm | - | - | - |
| 1777021991 | 13.89° C | 44% | 1100 hPa | 0 mm | - | - | - |
| 1777021391 | 13.89° C | 44% | 1100 hPa | 0 mm | - | - | - |
| 1777020791 | 12.78° C | 44% | 1100 hPa | 0 mm | - | - | - |
| 1777020192 | 12.78° C | 44% | 1100 hPa | 0 mm | - | - | - |
| 1777019591 | 11.11° C | 49% | 1100 hPa | 0 mm | - | - | - |
| 1777018991 | 11.11° C | 49% | 1100 hPa | 0 mm | - | - | - |
* Rain latest hour (hover to see other rain measurements)
** Current wind speed in m/s (hover to see current wind gust speed)